sensor_id;sensor_type;location;lat;lon;timestamp;temperature;humidity
62589;DHT22;58504;48.770;9.148;2022-10-17T00:00:07;22.20;66.50
62589;DHT22;58504;48.770;9.148;2022-10-17T00:02:35;22.20;66.50
62589;DHT22;58504;48.770;9.148;2022-10-17T00:05:03;22.20;66.40
62589;DHT22;58504;48.770;9.148;2022-10-17T00:07:29;22.20;66.50
62589;DHT22;58504;48.770;9.148;2022-10-17T00:09:56;22.20;67.20
62589;DHT22;58504;48.770;9.148;2022-10-17T00:12:23;22.20;66.50
62589;DHT22;58504;48.770;9.148;2022-10-17T00:14:50;22.20;66.50
62589;DHT22;58504;48.770;9.148;2022-10-17T00:17:16;22.20;66.50
62589;DHT22;58504;48.770;9.148;2022-10-17T00:19:45;22.20;66.50
62589;DHT22;58504;48.770;9.148;2022-10-17T00:22:12;22.10;66.40
62589;DHT22;58504;48.770;9.148;2022-10-17T00:24:38;22.10;66.40
62589;DHT22;58504;48.770;9.148;2022-10-17T00:29:47;22.10;66.40
62589;DHT22;58504;48.770;9.148;2022-10-17T00:32:15;22.10;66.40
62589;DHT22;58504;48.770;9.148;2022-10-17T00:34:41;22.10;66.40
62589;DHT22;58504;48.770;9.148;2022-10-17T00:37:10;22.10;66.40
62589;DHT22;58504;48.770;9.148;2022-10-17T00:39:37;22.10;66.40
62589;DHT22;58504;48.770;9.148;2022-10-17T00:42:04;22.10;66.30
62589;DHT22;58504;48.770;9.148;2022-10-17T00:44:56;22.10;66.40
62589;DHT22;58504;48.770;9.148;2022-10-17T00:47:23;22.10;66.30
62589;DHT22;58504;48.770;9.148;2022-10-17T00:49:49;22.10;66.40
62589;DHT22;58504;48.770;9.148;2022-10-17T00:52:20;22.10;66.40
62589;DHT22;58504;48.770;9.148;2022-10-17T00:54:52;22.10;66.40
62589;DHT22;58504;48.770;9.148;2022-10-17T00:57:19;22.10;66.30
62589;DHT22;58504;48.770;9.148;2022-10-17T00:59:49;22.10;66.30
62589;DHT22;58504;48.770;9.148;2022-10-17T01:02:19;22.00;66.20
62589;DHT22;58504;48.770;9.148;2022-10-17T01:04:48;22.00;66.30
62589;DHT22;58504;48.770;9.148;2022-10-17T01:07:15;22.00;66.20
62589;DHT22;58504;48.770;9.148;2022-10-17T01:09:44;22.10;66.30
62589;DHT22;58504;48.770;9.148;2022-10-17T01:12:18;22.00;66.20
62589;DHT22;58504;48.770;9.148;2022-10-17T01:14:59;22.00;66.20
62589;DHT22;58504;48.770;9.148;2022-10-17T01:17:33;22.00;66.20
62589;DHT22;58504;48.770;9.148;2022-10-17T01:20:29;22.00;66.20
62589;DHT22;58504;48.770;9.148;2022-10-17T01:23:11;22.00;66.20
62589;DHT22;58504;48.770;9.148;2022-10-17T01:25:49;22.00;66.20
62589;DHT22;58504;48.770;9.148;2022-10-17T01:28:40;22.00;66.20
62589;DHT22;58504;48.770;9.148;2022-10-17T01:31:15;22.00;66.20
62589;DHT22;58504;48.770;9.148;2022-10-17T01:33:46;22.00;66.30
62589;DHT22;58504;48.770;9.148;2022-10-17T01:36:23;22.00;66.20
62589;DHT22;58504;48.770;9.148;2022-10-17T01:38:57;22.00;66.20
62589;DHT22;58504;48.770;9.148;2022-10-17T01:41:34;22.00;66.20
62589;DHT22;58504;48.770;9.148;2022-10-17T01:44:07;22.00;66.20
62589;DHT22;58504;48.770;9.148;2022-10-17T01:46:38;22.00;66.90
62589;DHT22;58504;48.770;9.148;2022-10-17T01:49:07;22.00;66.20
62589;DHT22;58504;48.770;9.148;2022-10-17T01:51:36;22.00;66.20
62589;DHT22;58504;48.770;9.148;2022-10-17T01:54:09;21.90;66.00
62589;DHT22;58504;48.770;9.148;2022-10-17T01:56:36;21.90;66.10
62589;DHT22;58504;48.770;9.148;2022-10-17T01:59:09;21.90;66.00
62589;DHT22;58504;48.770;9.148;2022-10-17T02:01:40;21.90;66.10
62589;DHT22;58504;48.770;9.148;2022-10-17T02:04:09;21.90;66.10
62589;DHT22;58504;48.770;9.148;2022-10-17T02:06:37;21.90;66.00
62589;DHT22;58504;48.770;9.148;2022-10-17T02:09:15;21.90;66.00
62589;DHT22;58504;48.770;9.148;2022-10-17T02:11:57;21.90;66.00
62589;DHT22;58504;48.770;9.148;2022-10-17T02:14:35;21.90;66.10
62589;DHT22;58504;48.770;9.148;2022-10-17T02:17:12;21.90;66.00
62589;DHT22;58504;48.770;9.148;2022-10-17T02:19:49;21.90;66.00
62589;DHT22;58504;48.770;9.148;2022-10-17T02:22:26;21.90;66.00
62589;DHT22;58504;48.770;9.148;2022-10-17T02:25:01;21.90;66.20
62589;DHT22;58504;48.770;9.148;2022-10-17T02:27:34;21.90;66.00
62589;DHT22;58504;48.770;9.148;2022-10-17T02:30:07;21.90;66.00
62589;DHT22;58504;48.770;9.148;2022-10-17T02:32:40;21.90;66.00
62589;DHT22;58504;48.770;9.148;2022-10-17T02:35:09;21.90;65.90
62589;DHT22;58504;48.770;9.148;2022-10-17T02:37:38;21.90;66.00
62589;DHT22;58504;48.770;9.148;2022-10-17T02:40:08;21.90;65.90
62589;DHT22;58504;48.770;9.148;2022-10-17T02:42:37;21.90;65.90
62589;DHT22;58504;48.770;9.148;2022-10-17T02:45:06;21.80;65.90
62589;DHT22;58504;48.770;9.148;2022-10-17T02:47:40;21.80;65.90
62589;DHT22;58504;48.770;9.148;2022-10-17T02:50:09;21.80;65.90
62589;DHT22;58504;48.770;9.148;2022-10-17T02:52:39;21.80;65.80
62589;DHT22;58504;48.770;9.148;2022-10-17T02:55:12;21.80;65.80
62589;DHT22;58504;48.770;9.148;2022-10-17T02:57:45;21.80;65.90
62589;DHT22;58504;48.770;9.148;2022-10-17T03:00:13;21.90;65.90
62589;DHT22;58504;48.770;9.148;2022-10-17T03:02:45;21.80;65.80
62589;DHT22;58504;48.770;9.148;2022-10-17T03:05:14;21.80;65.90
62589;DHT22;58504;48.770;9.148;2022-10-17T03:07:42;21.80;65.90
62589;DHT22;58504;48.770;9.148;2022-10-17T03:10:08;21.80;65.90
62589;DHT22;58504;48.770;9.148;2022-10-17T03:12:35;21.90;66.00
62589;DHT22;58504;48.770;9.148;2022-10-17T03:15:03;21.80;65.80
62589;DHT22;58504;48.770;9.148;2022-10-17T03:17:30;21.80;65.80
62589;DHT22;58504;48.770;9.148;2022-10-17T03:19:58;21.80;65.70
62589;DHT22;58504;48.770;9.148;2022-10-17T03:22:24;21.80;65.80
62589;DHT22;58504;48.770;9.148;2022-10-17T03:24:51;21.80;65.80
62589;DHT22;58504;48.770;9.148;2022-10-17T03:27:18;21.80;65.80
62589;DHT22;58504;48.770;9.148;2022-10-17T03:29:45;21.80;65.80
62589;DHT22;58504;48.770;9.148;2022-10-17T03:32:11;21.80;65.80
62589;DHT22;58504;48.770;9.148;2022-10-17T03:34:38;21.80;65.80
62589;DHT22;58504;48.770;9.148;2022-10-17T03:37:06;21.80;65.80
62589;DHT22;58504;48.770;9.148;2022-10-17T03:39:33;21.80;65.80
62589;DHT22;58504;48.770;9.148;2022-10-17T03:42:00;21.80;65.80
62589;DHT22;58504;48.770;9.148;2022-10-17T03:44:27;21.80;65.80
62589;DHT22;58504;48.770;9.148;2022-10-17T03:46:53;21.80;65.80
62589;DHT22;58504;48.770;9.148;2022-10-17T03:49:20;21.80;65.80
62589;DHT22;58504;48.770;9.148;2022-10-17T03:51:47;21.70;65.70
62589;DHT22;58504;48.770;9.148;2022-10-17T03:54:15;21.80;65.80
62589;DHT22;58504;48.770;9.148;2022-10-17T03:56:42;21.80;65.80
62589;DHT22;58504;48.770;9.148;2022-10-17T03:59:12;21.80;65.80
62589;DHT22;58504;48.770;9.148;2022-10-17T04:01:39;21.70;65.70
62589;DHT22;58504;48.770;9.148;2022-10-17T04:04:05;21.70;65.80
62589;DHT22;58504;48.770;9.148;2022-10-17T04:06:32;21.70;65.70
62589;DHT22;58504;48.770;9.148;2022-10-17T04:08:59;21.70;65.70
62589;DHT22;58504;48.770;9.148;2022-10-17T04:11:27;21.70;66.50
62589;DHT22;58504;48.770;9.148;2022-10-17T04:13:55;21.70;65.70
62589;DHT22;58504;48.770;9.148;2022-10-17T04:16:24;21.70;65.70
62589;DHT22;58504;48.770;9.148;2022-10-17T04:18:52;21.70;65.70
62589;DHT22;58504;48.770;9.148;2022-10-17T04:21:19;21.80;65.80
62589;DHT22;58504;48.770;9.148;2022-10-17T04:23:46;21.70;65.70
62589;DHT22;58504;48.770;9.148;2022-10-17T04:26:13;21.70;65.70
62589;DHT22;58504;48.770;9.148;2022-10-17T04:28:41;21.70;65.80
62589;DHT22;58504;48.770;9.148;2022-10-17T04:31:12;21.70;65.80
62589;DHT22;58504;48.770;9.148;2022-10-17T04:33:39;21.70;65.80
62589;DHT22;58504;48.770;9.148;2022-10-17T04:36:08;21.70;65.80
62589;DHT22;58504;48.770;9.148;2022-10-17T04:38:35;21.70;65.80
62589;DHT22;58504;48.770;9.148;2022-10-17T04:41:05;21.70;65.80
62589;DHT22;58504;48.770;9.148;2022-10-17T04:43:34;21.70;65.80
62589;DHT22;58504;48.770;9.148;2022-10-17T04:46:05;21.70;65.80
62589;DHT22;58504;48.770;9.148;2022-10-17T04:48:32;21.70;65.80
62589;DHT22;58504;48.770;9.148;2022-10-17T04:51:00;21.70;65.80
62589;DHT22;58504;48.770;9.148;2022-10-17T04:53:30;21.80;65.90
62589;DHT22;58504;48.770;9.148;2022-10-17T04:55:57;21.80;65.80
62589;DHT22;58504;48.770;9.148;2022-10-17T04:58:27;21.80;65.80
62589;DHT22;58504;48.770;9.148;2022-10-17T05:00:53;21.80;66.20
62589;DHT22;58504;48.770;9.148;2022-10-17T05:03:21;21.80;66.90
62589;DHT22;58504;48.770;9.148;2022-10-17T05:05:48;21.90;66.20
62589;DHT22;58504;48.770;9.148;2022-10-17T05:08:15;21.90;66.00
62589;DHT22;58504;48.770;9.148;2022-10-17T05:10:43;22.00;65.80
62589;DHT22;58504;48.770;9.148;2022-10-17T05:13:11;22.00;65.60
62589;DHT22;58504;48.770;9.148;2022-10-17T05:15:38;21.90;62.40
62589;DHT22;58504;48.770;9.148;2022-10-17T05:18:05;21.60;58.60
62589;DHT22;58504;48.770;9.148;2022-10-17T05:20:34;20.90;58.50
62589;DHT22;58504;48.770;9.148;2022-10-17T05:23:01;20.40;59.60
62589;DHT22;58504;48.770;9.148;2022-10-17T05:25:28;20.00;61.10
62589;DHT22;58504;48.770;9.148;2022-10-17T05:27:54;19.80;61.70
62589;DHT22;58504;48.770;9.148;2022-10-17T05:30:21;19.50;62.20
62589;DHT22;58504;48.770;9.148;2022-10-17T05:32:51;19.30;63.20
62589;DHT22;58504;48.770;9.148;2022-10-17T05:35:19;19.20;63.40
62589;DHT22;58504;48.770;9.148;2022-10-17T05:37:47;19.00;64.00
62589;DHT22;58504;48.770;9.148;2022-10-17T05:40:14;18.80;64.50
62589;DHT22;58504;48.770;9.148;2022-10-17T05:42:45;18.80;64.90
62589;DHT22;58504;48.770;9.148;2022-10-17T05:45:12;18.80;64.90
62589;DHT22;58504;48.770;9.148;2022-10-17T05:47:38;18.70;65.10
62589;DHT22;58504;48.770;9.148;2022-10-17T05:50:07;18.50;65.70
62589;DHT22;58504;48.770;9.148;2022-10-17T05:52:33;18.40;66.10
62589;DHT22;58504;48.770;9.148;2022-10-17T05:55:02;18.30;66.60
62589;DHT22;58504;48.770;9.148;2022-10-17T05:57:29;18.30;66.80
62589;DHT22;58504;48.770;9.148;2022-10-17T05:59:55;18.30;67.00
62589;DHT22;58504;48.770;9.148;2022-10-17T06:02:22;18.40;67.50
62589;DHT22;58504;48.770;9.148;2022-10-17T06:04:49;18.70;67.50
62589;DHT22;58504;48.770;9.148;2022-10-17T06:07:16;18.90;67.50
62589;DHT22;58504;48.770;9.148;2022-10-17T06:09:42;19.20;67.40
62589;DHT22;58504;48.770;9.148;2022-10-17T06:12:10;19.40;66.90
62589;DHT22;58504;48.770;9.148;2022-10-17T06:14:37;19.70;66.60
62589;DHT22;58504;48.770;9.148;2022-10-17T06:17:04;19.80;66.30
62589;DHT22;58504;48.770;9.148;2022-10-17T06:19:31;20.00;67.10
62589;DHT22;58504;48.770;9.148;2022-10-17T06:21:57;20.30;68.20
62589;DHT22;58504;48.770;9.148;2022-10-17T06:24:24;20.40;68.50
62589;DHT22;58504;48.770;9.148;2022-10-17T06:26:51;20.60;68.50
62589;DHT22;58504;48.770;9.148;2022-10-17T06:29:19;20.80;68.50
62589;DHT22;58504;48.770;9.148;2022-10-17T06:31:46;20.90;68.30
62589;DHT22;58504;48.770;9.148;2022-10-17T06:34:13;21.10;68.20
62589;DHT22;58504;48.770;9.148;2022-10-17T06:36:39;21.20;68.00
62589;DHT22;58504;48.770;9.148;2022-10-17T06:39:06;21.30;67.90
62589;DHT22;58504;48.770;9.148;2022-10-17T06:41:33;21.40;67.80
62589;DHT22;58504;48.770;9.148;2022-10-17T06:44:00;21.40;67.50
62589;DHT22;58504;48.770;9.148;2022-10-17T06:46:33;21.50;67.30
62589;DHT22;58504;48.770;9.148;2022-10-17T06:49:00;21.60;67.20
62589;DHT22;58504;48.770;9.148;2022-10-17T06:51:27;21.60;67.00
62589;DHT22;58504;48.770;9.148;2022-10-17T06:53:53;21.70;67.00
62589;DHT22;58504;48.770;9.148;2022-10-17T06:56:22;21.80;67.10
62589;DHT22;58504;48.770;9.148;2022-10-17T06:58:49;21.80;67.10
62589;DHT22;58504;48.770;9.148;2022-10-17T07:01:17;21.80;67.10
62589;DHT22;58504;48.770;9.148;2022-10-17T07:03:47;21.90;67.20
62589;DHT22;58504;48.770;9.148;2022-10-17T07:06:14;21.90;67.00
62589;DHT22;58504;48.770;9.148;2022-10-17T07:08:42;21.90;66.90
62589;DHT22;58504;48.770;9.148;2022-10-17T07:11:10;22.00;66.80
62589;DHT22;58504;48.770;9.148;2022-10-17T07:13:38;22.00;66.70
62589;DHT22;58504;48.770;9.148;2022-10-17T07:16:05;22.00;66.60
62589;DHT22;58504;48.770;9.148;2022-10-17T07:18:32;22.10;66.50
62589;DHT22;58504;48.770;9.148;2022-10-17T07:21:00;22.10;66.40
62589;DHT22;58504;48.770;9.148;2022-10-17T07:23:28;22.20;66.40
62589;DHT22;58504;48.770;9.148;2022-10-17T07:25:58;22.30;66.40
62589;DHT22;58504;48.770;9.148;2022-10-17T07:28:26;22.30;66.30
62589;DHT22;58504;48.770;9.148;2022-10-17T07:30:53;22.30;66.10
62589;DHT22;58504;48.770;9.148;2022-10-17T07:33:19;22.30;66.10
62589;DHT22;58504;48.770;9.148;2022-10-17T07:35:46;22.40;65.90
62589;DHT22;58504;48.770;9.148;2022-10-17T07:38:14;22.40;65.60
62589;DHT22;58504;48.770;9.148;2022-10-17T07:40:41;22.40;65.30
62589;DHT22;58504;48.770;9.148;2022-10-17T07:43:08;22.50;65.40
62589;DHT22;58504;48.770;9.148;2022-10-17T07:45:35;22.50;65.30
62589;DHT22;58504;48.770;9.148;2022-10-17T07:48:02;22.50;65.30
62589;DHT22;58504;48.770;9.148;2022-10-17T07:50:28;22.50;65.10
62589;DHT22;58504;48.770;9.148;2022-10-17T07:52:56;22.60;64.90
62589;DHT22;58504;48.770;9.148;2022-10-17T07:55:24;22.60;64.70
62589;DHT22;58504;48.770;9.148;2022-10-17T07:57:51;22.60;64.70
62589;DHT22;58504;48.770;9.148;2022-10-17T08:00:17;22.70;64.80
62589;DHT22;58504;48.770;9.148;2022-10-17T08:02:44;22.70;64.90
62589;DHT22;58504;48.770;9.148;2022-10-17T08:05:11;22.70;64.40
62589;DHT22;58504;48.770;9.148;2022-10-17T08:07:38;22.70;64.40
62589;DHT22;58504;48.770;9.148;2022-10-17T08:10:06;22.70;64.40
62589;DHT22;58504;48.770;9.148;2022-10-17T08:12:35;22.70;64.30
62589;DHT22;58504;48.770;9.148;2022-10-17T08:15:02;22.70;64.20
62589;DHT22;58504;48.770;9.148;2022-10-17T08:17:29;22.70;64.10
62589;DHT22;58504;48.770;9.148;2022-10-17T08:19:55;22.70;64.00
62589;DHT22;58504;48.770;9.148;2022-10-17T08:22:22;22.80;64.00
62589;DHT22;58504;48.770;9.148;2022-10-17T08:24:49;22.70;63.70
62589;DHT22;58504;48.770;9.148;2022-10-17T08:27:16;22.70;63.70
62589;DHT22;58504;48.770;9.148;2022-10-17T08:29:50;22.70;63.60
62589;DHT22;58504;48.770;9.148;2022-10-17T08:32:18;22.70;63.70
62589;DHT22;58504;48.770;9.148;2022-10-17T08:34:45;22.80;63.70
62589;DHT22;58504;48.770;9.148;2022-10-17T08:37:12;22.70;63.70
62589;DHT22;58504;48.770;9.148;2022-10-17T08:39:39;22.60;63.70
62589;DHT22;58504;48.770;9.148;2022-10-17T08:42:24;22.60;63.80
62589;DHT22;58504;48.770;9.148;2022-10-17T08:44:59;22.70;64.00
62589;DHT22;58504;48.770;9.148;2022-10-17T08:47:32;22.60;63.70
62589;DHT22;58504;48.770;9.148;2022-10-17T08:50:02;22.60;63.60
62589;DHT22;58504;48.770;9.148;2022-10-17T08:52:34;22.70;63.80
62589;DHT22;58504;48.770;9.148;2022-10-17T08:55:03;22.70;63.80
62589;DHT22;58504;48.770;9.148;2022-10-17T08:57:30;22.70;63.80
62589;DHT22;58504;48.770;9.148;2022-10-17T08:59:58;22.70;63.60
62589;DHT22;58504;48.770;9.148;2022-10-17T09:02:38;22.70;63.70
62589;DHT22;58504;48.770;9.148;2022-10-17T09:05:26;22.70;63.70
62589;DHT22;58504;48.770;9.148;2022-10-17T09:08:05;22.70;63.80
62589;DHT22;58504;48.770;9.148;2022-10-17T09:10:39;22.70;63.70
62589;DHT22;58504;48.770;9.148;2022-10-17T09:13:18;22.70;63.80
62589;DHT22;58504;48.770;9.148;2022-10-17T09:16:01;22.70;63.80
62589;DHT22;58504;48.770;9.148;2022-10-17T09:18:31;22.80;63.80
62589;DHT22;58504;48.770;9.148;2022-10-17T09:21:01;22.80;63.50
62589;DHT22;58504;48.770;9.148;2022-10-17T09:23:42;22.90;63.50
62589;DHT22;58504;48.770;9.148;2022-10-17T09:26:11;23.00;63.30
62589;DHT22;58504;48.770;9.148;2022-10-17T09:28:39;23.00;63.20
62589;DHT22;58504;48.770;9.148;2022-10-17T09:31:13;23.00;63.00
62589;DHT22;58504;48.770;9.148;2022-10-17T09:33:43;23.10;62.90
62589;DHT22;58504;48.770;9.148;2022-10-17T09:36:14;23.10;62.70
62589;DHT22;58504;48.770;9.148;2022-10-17T09:38:44;23.20;62.80
62589;DHT22;58504;48.770;9.148;2022-10-17T09:41:17;23.20;62.50
62589;DHT22;58504;48.770;9.148;2022-10-17T09:43:44;23.30;62.50
62589;DHT22;58504;48.770;9.148;2022-10-17T09:46:17;23.40;62.60
62589;DHT22;58504;48.770;9.148;2022-10-17T09:48:49;23.30;62.20
62589;DHT22;58504;48.770;9.148;2022-10-17T09:51:17;23.50;62.00
62589;DHT22;58504;48.770;9.148;2022-10-17T09:53:48;23.40;61.90
62589;DHT22;58504;48.770;9.148;2022-10-17T09:56:18;23.40;61.80
62589;DHT22;58504;48.770;9.148;2022-10-17T09:58:46;23.40;61.90
62589;DHT22;58504;48.770;9.148;2022-10-17T10:01:17;23.40;59.40
62589;DHT22;58504;48.770;9.148;2022-10-17T10:03:44;23.40;58.90
62589;DHT22;58504;48.770;9.148;2022-10-17T10:06:13;23.40;58.50
62589;DHT22;58504;48.770;9.148;2022-10-17T10:08:48;23.40;58.30
62589;DHT22;58504;48.770;9.148;2022-10-17T10:11:16;23.40;58.20
62589;DHT22;58504;48.770;9.148;2022-10-17T10:13:45;23.50;58.00
62589;DHT22;58504;48.770;9.148;2022-10-17T10:16:20;23.60;57.70
62589;DHT22;58504;48.770;9.148;2022-10-17T10:18:48;23.60;57.40
62589;DHT22;58504;48.770;9.148;2022-10-17T10:21:17;23.60;57.00
62589;DHT22;58504;48.770;9.148;2022-10-17T10:24:01;23.70;57.00
62589;DHT22;58504;48.770;9.148;2022-10-17T10:26:33;23.80;57.00
62589;DHT22;58504;48.770;9.148;2022-10-17T10:29:04;23.80;56.70
62589;DHT22;58504;48.770;9.148;2022-10-17T10:31:34;23.80;57.10
62589;DHT22;58504;48.770;9.148;2022-10-17T10:34:13;24.00;57.80
62589;DHT22;58504;48.770;9.148;2022-10-17T10:36:43;23.90;57.90
62589;DHT22;58504;48.770;9.148;2022-10-17T10:39:24;23.90;57.20
62589;DHT22;58504;48.770;9.148;2022-10-17T10:41:51;23.90;57.60
62589;DHT22;58504;48.770;9.148;2022-10-17T10:44:22;23.90;58.20
62589;DHT22;58504;48.770;9.148;2022-10-17T10:47:05;23.90;57.50
62589;DHT22;58504;48.770;9.148;2022-10-17T10:49:32;24.00;58.20
62589;DHT22;58504;48.770;9.148;2022-10-17T10:52:00;24.00;58.50
62589;DHT22;58504;48.770;9.148;2022-10-17T10:54:41;24.00;58.70
62589;DHT22;58504;48.770;9.148;2022-10-17T10:57:12;24.00;58.20
62589;DHT22;58504;48.770;9.148;2022-10-17T10:59:51;24.00;54.40
62589;DHT22;58504;48.770;9.148;2022-10-17T11:02:25;24.10;54.80
62589;DHT22;58504;48.770;9.148;2022-10-17T11:04:56;24.10;54.00
62589;DHT22;58504;48.770;9.148;2022-10-17T11:07:27;24.10;54.10
62589;DHT22;58504;48.770;9.148;2022-10-17T11:09:59;24.20;55.50
62589;DHT22;58504;48.770;9.148;2022-10-17T11:12:32;24.20;56.50
62589;DHT22;58504;48.770;9.148;2022-10-17T11:15:04;24.30;53.40
62589;DHT22;58504;48.770;9.148;2022-10-17T11:17:38;24.30;54.40
62589;DHT22;58504;48.770;9.148;2022-10-17T11:20:20;24.40;52.60
62589;DHT22;58504;48.770;9.148;2022-10-17T11:22:52;24.50;54.20
62589;DHT22;58504;48.770;9.148;2022-10-17T11:25:33;24.50;55.40
62589;DHT22;58504;48.770;9.148;2022-10-17T11:28:01;24.60;54.80
62589;DHT22;58504;48.770;9.148;2022-10-17T11:30:37;24.60;54.50
62589;DHT22;58504;48.770;9.148;2022-10-17T11:33:08;24.70;54.00
62589;DHT22;58504;48.770;9.148;2022-10-17T11:35:39;24.70;54.80
62589;DHT22;58504;48.770;9.148;2022-10-17T11:38:13;24.70;53.50
62589;DHT22;58504;48.770;9.148;2022-10-17T11:40:45;24.80;54.00
62589;DHT22;58504;48.770;9.148;2022-10-17T11:43:17;24.80;52.90
62589;DHT22;58504;48.770;9.148;2022-10-17T11:45:49;24.90;53.70
62589;DHT22;58504;48.770;9.148;2022-10-17T11:48:20;24.90;53.10
62589;DHT22;58504;48.770;9.148;2022-10-17T11:50:52;24.90;53.80
62589;DHT22;58504;48.770;9.148;2022-10-17T11:53:22;24.90;53.40
62589;DHT22;58504;48.770;9.148;2022-10-17T11:55:51;24.90;52.60
62589;DHT22;58504;48.770;9.148;2022-10-17T11:58:26;24.90;52.80
62589;DHT22;58504;48.770;9.148;2022-10-17T12:01:03;24.90;53.60
62589;DHT22;58504;48.770;9.148;2022-10-17T12:03:50;24.90;52.80
62589;DHT22;58504;48.770;9.148;2022-10-17T12:06:26;24.90;53.50
62589;DHT22;58504;48.770;9.148;2022-10-17T12:09:00;24.90;53.80
62589;DHT22;58504;48.770;9.148;2022-10-17T12:11:41;24.90;54.00
62589;DHT22;58504;48.770;9.148;2022-10-17T12:14:43;24.90;54.20
62589;DHT22;58504;48.770;9.148;2022-10-17T12:17:28;24.90;54.40
62589;DHT22;58504;48.770;9.148;2022-10-17T12:20:26;24.80;54.60
62589;DHT22;58504;48.770;9.148;2022-10-17T12:22:54;24.80;54.70
62589;DHT22;58504;48.770;9.148;2022-10-17T12:25:23;24.80;54.80
62589;DHT22;58504;48.770;9.148;2022-10-17T12:30:55;24.80;54.20
62589;DHT22;58504;48.770;9.148;2022-10-17T12:33:28;24.90;54.00
62589;DHT22;58504;48.770;9.148;2022-10-17T12:41:57;24.90;54.00
62589;DHT22;58504;48.770;9.148;2022-10-17T12:44:39;24.90;53.80
62589;DHT22;58504;48.770;9.148;2022-10-17T12:47:27;24.90;53.90
62589;DHT22;58504;48.770;9.148;2022-10-17T12:49:54;24.90;53.90
62589;DHT22;58504;48.770;9.148;2022-10-17T12:52:23;24.90;54.10
62589;DHT22;58504;48.770;9.148;2022-10-17T12:54:53;25.00;54.20
62589;DHT22;58504;48.770;9.148;2022-10-17T12:57:29;24.90;54.20
62589;DHT22;58504;48.770;9.148;2022-10-17T12:59:57;24.80;54.40
62589;DHT22;58504;48.770;9.148;2022-10-17T13:02:26;24.80;54.30
62589;DHT22;58504;48.770;9.148;2022-10-17T13:05:02;24.80;54.40
62589;DHT22;58504;48.770;9.148;2022-10-17T13:07:33;24.90;54.50
62589;DHT22;58504;48.770;9.148;2022-10-17T13:10:01;25.00;54.30
62589;DHT22;58504;48.770;9.148;2022-10-17T13:12:32;25.10;54.10
62589;DHT22;58504;48.770;9.148;2022-10-17T13:15:03;25.30;53.60
62589;DHT22;58504;48.770;9.148;2022-10-17T13:17:32;25.60;53.00
62589;DHT22;58504;48.770;9.148;2022-10-17T13:19:59;25.80;52.30
62589;DHT22;58504;48.770;9.148;2022-10-17T13:22:28;26.20;51.90
62589;DHT22;58504;48.770;9.148;2022-10-17T13:25:07;26.30;51.30
62589;DHT22;58504;48.770;9.148;2022-10-17T13:27:35;26.50;50.90
62589;DHT22;58504;48.770;9.148;2022-10-17T13:30:22;26.70;50.50
62589;DHT22;58504;48.770;9.148;2022-10-17T13:32:49;27.00;50.00
62589;DHT22;58504;48.770;9.148;2022-10-17T13:35:22;27.10;49.70
62589;DHT22;58504;48.770;9.148;2022-10-17T13:37:49;27.30;49.90
62589;DHT22;58504;48.770;9.148;2022-10-17T13:40:19;27.50;49.00
62589;DHT22;58504;48.770;9.148;2022-10-17T13:42:47;27.70;49.30
62589;DHT22;58504;48.770;9.148;2022-10-17T13:45:19;27.80;48.50
62589;DHT22;58504;48.770;9.148;2022-10-17T13:47:48;27.90;48.20
62589;DHT22;58504;48.770;9.148;2022-10-17T13:50:31;28.00;48.00
62589;DHT22;58504;48.770;9.148;2022-10-17T13:53:16;28.10;47.70
62589;DHT22;58504;48.770;9.148;2022-10-17T13:55:58;28.20;47.70
62589;DHT22;58504;48.770;9.148;2022-10-17T13:58:30;28.10;47.70
62589;DHT22;58504;48.770;9.148;2022-10-17T14:00:59;28.00;47.90
62589;DHT22;58504;48.770;9.148;2022-10-17T14:03:26;28.00;48.00
62589;DHT22;58504;48.770;9.148;2022-10-17T14:06:13;27.90;48.20
62589;DHT22;58504;48.770;9.148;2022-10-17T14:08:48;27.70;48.60
62589;DHT22;58504;48.770;9.148;2022-10-17T14:11:28;27.50;49.10
62589;DHT22;58504;48.770;9.148;2022-10-17T14:13:58;27.30;49.60
62589;DHT22;58504;48.770;9.148;2022-10-17T14:16:26;27.10;50.00
62589;DHT22;58504;48.770;9.148;2022-10-17T14:18:58;26.90;50.60
62589;DHT22;58504;48.770;9.148;2022-10-17T14:21:25;26.60;51.00
62589;DHT22;58504;48.770;9.148;2022-10-17T14:24:11;26.40;51.60
62589;DHT22;58504;48.770;9.148;2022-10-17T14:26:46;26.20;52.20
62589;DHT22;58504;48.770;9.148;2022-10-17T14:29:21;26.00;52.70
62589;DHT22;58504;48.770;9.148;2022-10-17T14:31:49;25.80;53.00
62589;DHT22;58504;48.770;9.148;2022-10-17T14:34:21;25.70;53.40
62589;DHT22;58504;48.770;9.148;2022-10-17T14:36:51;25.60;53.60
62589;DHT22;58504;48.770;9.148;2022-10-17T14:39:21;25.40;54.00
62589;DHT22;58504;48.770;9.148;2022-10-17T14:41:49;25.30;54.30
62589;DHT22;58504;48.770;9.148;2022-10-17T14:44:23;25.20;54.60
62589;DHT22;58504;48.770;9.148;2022-10-17T14:46:53;25.10;54.80
62589;DHT22;58504;48.770;9.148;2022-10-17T14:49:27;25.00;55.00
62589;DHT22;58504;48.770;9.148;2022-10-17T14:52:25;24.90;55.10
62589;DHT22;58504;48.770;9.148;2022-10-17T14:54:52;24.90;55.40
62589;DHT22;58504;48.770;9.148;2022-10-17T14:57:23;24.80;55.50
62589;DHT22;58504;48.770;9.148;2022-10-17T14:59:52;24.70;55.60
62589;DHT22;58504;48.770;9.148;2022-10-17T15:02:18;24.70;55.80
62589;DHT22;58504;48.770;9.148;2022-10-17T15:04:45;24.70;56.00
62589;DHT22;58504;48.770;9.148;2022-10-17T15:07:13;24.60;56.10
62589;DHT22;58504;48.770;9.148;2022-10-17T15:09:41;24.50;56.20
62589;DHT22;58504;48.770;9.148;2022-10-17T15:12:13;24.50;56.40
62589;DHT22;58504;48.770;9.148;2022-10-17T15:14:41;24.50;56.60
62589;DHT22;58504;48.770;9.148;2022-10-17T15:17:12;24.50;56.60
62589;DHT22;58504;48.770;9.148;2022-10-17T15:19:39;24.50;56.70
62589;DHT22;58504;48.770;9.148;2022-10-17T15:22:06;24.40;56.60
62589;DHT22;58504;48.770;9.148;2022-10-17T15:24:33;24.40;56.70
62589;DHT22;58504;48.770;9.148;2022-10-17T15:27:00;24.40;56.80
62589;DHT22;58504;48.770;9.148;2022-10-17T15:29:27;24.40;56.80
62589;DHT22;58504;48.770;9.148;2022-10-17T15:31:53;24.30;56.80
62589;DHT22;58504;48.770;9.148;2022-10-17T15:34:21;24.30;56.90
62589;DHT22;58504;48.770;9.148;2022-10-17T15:36:50;24.30;57.00
62589;DHT22;58504;48.770;9.148;2022-10-17T15:39:17;24.30;57.00
62589;DHT22;58504;48.770;9.148;2022-10-17T15:41:43;24.30;57.10
62589;DHT22;58504;48.770;9.148;2022-10-17T15:44:12;24.20;57.10
62589;DHT22;58504;48.770;9.148;2022-10-17T15:46:40;24.20;57.20
62589;DHT22;58504;48.770;9.148;2022-10-17T15:49:11;24.20;57.30
62589;DHT22;58504;48.770;9.148;2022-10-17T15:51:39;24.20;58.00
62589;DHT22;58504;48.770;9.148;2022-10-17T15:54:06;24.10;58.10
62589;DHT22;58504;48.770;9.148;2022-10-17T15:56:34;24.10;58.00
62589;DHT22;58504;48.770;9.148;2022-10-17T15:59:02;24.10;58.00
62589;DHT22;58504;48.770;9.148;2022-10-17T16:01:30;24.10;57.90